createdAt,value
2023-01-19T00:00:57.173Z,82.34
2023-01-19T00:03:28.327Z,82.61
2023-01-19T00:05:55.479Z,82.41
2023-01-19T00:08:22.620Z,82.40
2023-01-19T00:10:52.827Z,82.49
2023-01-19T00:13:20.168Z,82.66
2023-01-19T00:15:47.346Z,82.72
2023-01-19T00:18:14.567Z,82.56
2023-01-19T00:20:41.798Z,82.41
2023-01-19T00:23:08.965Z,82.52
2023-01-19T00:25:41.792Z,82.85
2023-01-19T00:28:14.289Z,82.91
2023-01-19T00:30:42.279Z,82.93
2023-01-19T00:33:13.131Z,82.94
2023-01-19T00:35:42.098Z,83.07
2023-01-19T00:38:11.267Z,83.08
2023-01-19T00:40:38.361Z,83.69
2023-01-19T00:43:05.352Z,83.81
2023-01-19T00:45:32.996Z,83.99
2023-01-19T00:48:00.562Z,83.67
2023-01-19T00:50:29.937Z,83.45
2023-01-19T00:53:00.684Z,83.66
2023-01-19T00:55:29.169Z,83.89
2023-01-19T00:57:57.202Z,84.08
2023-01-19T01:00:25.203Z,83.93
2023-01-19T01:02:53.367Z,83.43
2023-01-19T01:05:21.056Z,83.38
2023-01-19T01:07:49.348Z,83.78
2023-01-19T01:10:25.218Z,84.23
2023-01-19T01:12:56.384Z,84.20
2023-01-19T01:15:26.850Z,84.57
2023-01-19T01:17:54.736Z,84.84
2023-01-19T01:20:28.273Z,84.39
2023-01-19T01:22:56.874Z,85.83
2023-01-19T01:25:26.021Z,85.82
2023-01-19T01:27:53.947Z,85.67
2023-01-19T01:30:21.703Z,86.14
2023-01-19T01:32:49.058Z,86.42
2023-01-19T01:35:16.840Z,85.94
2023-01-19T01:37:44.129Z,85.43
2023-01-19T01:40:18.350Z,85.46
2023-01-19T01:42:45.757Z,84.40
2023-01-19T01:45:39.806Z,85.43
2023-01-19T01:48:38.863Z,85.79
2023-01-19T01:51:23.639Z,85.25
2023-01-19T01:54:16.500Z,85.16
2023-01-19T01:56:50.879Z,85.09
2023-01-19T01:59:34.294Z,85.21
2023-01-19T02:02:28.204Z,85.16
2023-01-19T02:05:12.517Z,84.28
2023-01-19T02:08:06.310Z,84.57
2023-01-19T02:10:51.877Z,85.06
2023-01-19T02:13:20.646Z,84.74
2023-01-19T02:15:51.186Z,84.47
2023-01-19T02:18:21.275Z,84.15
2023-01-19T02:20:58.859Z,84.14
2023-01-19T02:23:45.823Z,84.61
2023-01-19T02:26:27.537Z,85.01
2023-01-19T02:29:01.609Z,85.32
2023-01-19T02:31:30.562Z,85.08
2023-01-19T02:33:59.784Z,85.64
2023-01-19T02:36:37.704Z,85.63
2023-01-19T02:39:06.256Z,85.87
2023-01-19T02:41:39.664Z,85.37
2023-01-19T02:44:09.904Z,85.18
2023-01-19T02:46:38.040Z,85.26
2023-01-19T02:49:05.171Z,85.20
2023-01-19T02:51:33.492Z,85.63
2023-01-19T02:54:22.851Z,85.53
2023-01-19T02:57:23.761Z,85.85
2023-01-19T03:00:24.762Z,86.09
2023-01-19T03:03:05.925Z,85.75
2023-01-19T03:06:20.028Z,85.41
2023-01-19T03:09:00.125Z,85.68
2023-01-19T03:11:35.690Z,86.17
2023-01-19T03:14:09.475Z,86.29
2023-01-19T03:16:41.051Z,85.80
2023-01-19T03:19:33.817Z,86.59
2023-01-19T03:22:07.040Z,86.70
2023-01-19T03:24:39.882Z,86.40
2023-01-19T03:27:31.111Z,86.30
2023-01-19T03:30:05.759Z,85.78
2023-01-19T03:32:41.826Z,85.57
2023-01-19T03:35:13.840Z,85.11
2023-01-19T03:37:47.739Z,85.10
2023-01-19T03:40:15.244Z,84.90
2023-01-19T03:42:43.989Z,85.32
2023-01-19T03:45:13.249Z,85.02
2023-01-19T03:47:40.862Z,85.58
2023-01-19T03:50:20.032Z,85.63
2023-01-19T03:53:00.059Z,85.95
2023-01-19T03:55:27.525Z,85.80
2023-01-19T03:57:54.580Z,85.38
2023-01-19T04:00:21.831Z,85.36
2023-01-19T04:02:49.002Z,86.03
2023-01-19T04:05:16.137Z,85.70
2023-01-19T04:07:43.193Z,85.39
2023-01-19T04:10:12.215Z,84.86
2023-01-19T04:12:42.304Z,84.77
2023-01-19T04:15:09.632Z,84.33
2023-01-19T04:17:37.875Z,84.60
2023-01-19T04:20:06.408Z,84.79
2023-01-19T04:22:34.869Z,84.88
2023-01-19T04:25:02.576Z,84.45
2023-01-19T04:27:29.672Z,84.54
2023-01-19T04:29:56.746Z,84.38
2023-01-19T04:32:23.969Z,84.61
2023-01-19T04:34:51.389Z,84.45
2023-01-19T04:37:18.483Z,84.99
2023-01-19T04:39:45.619Z,84.68
2023-01-19T04:42:12.807Z,84.60
2023-01-19T04:44:39.894Z,84.92
2023-01-19T04:47:06.991Z,85.03
2023-01-19T04:49:37.075Z,84.94
2023-01-19T04:52:05.740Z,84.50
2023-01-19T04:54:33.242Z,84.26
2023-01-19T04:57:00.377Z,83.86
2023-01-19T04:59:27.465Z,83.67
2023-01-19T05:01:55.944Z,83.52
2023-01-19T05:04:25.082Z,83.21
2023-01-19T05:06:53.662Z,82.91
2023-01-19T05:09:21.232Z,82.62
2023-01-19T05:11:48.371Z,82.88
2023-01-19T05:14:15.499Z,82.60
2023-01-19T05:16:42.524Z,82.39
2023-01-19T05:19:09.660Z,81.92
2023-01-19T05:21:36.719Z,82.12
2023-01-19T05:24:04.133Z,81.81
2023-01-19T05:26:31.229Z,81.74
2023-01-19T05:28:58.328Z,81.59
2023-01-19T05:31:25.604Z,81.61
2023-01-19T05:33:52.763Z,81.54
2023-01-19T05:36:19.883Z,81.68
2023-01-19T05:38:46.956Z,81.86
2023-01-19T05:41:14.142Z,82.07
2023-01-19T05:43:41.327Z,82.13
2023-01-19T05:46:08.746Z,82.03
2023-01-19T05:48:35.911Z,81.95
2023-01-19T05:51:04.503Z,81.96
2023-01-19T05:53:31.838Z,81.97
2023-01-19T05:56:04.809Z,82.08
2023-01-19T05:58:33.820Z,81.88
2023-01-19T06:01:09.358Z,81.85
2023-01-19T06:03:36.955Z,82.03
2023-01-19T06:06:04.208Z,82.32
2023-01-19T06:08:31.293Z,82.39
2023-01-19T06:10:58.332Z,82.45
2023-01-19T06:13:25.485Z,82.59
2023-01-19T06:16:00.127Z,82.19
2023-01-19T06:18:28.111Z,82.52
2023-01-19T06:20:58.232Z,82.57
2023-01-19T06:23:26.858Z,82.77
2023-01-19T06:25:53.963Z,82.54
2023-01-19T06:28:21.827Z,82.64
2023-01-19T06:30:51.076Z,82.78
2023-01-19T06:33:19.502Z,82.54
2023-01-19T06:35:48.682Z,82.73
2023-01-19T06:38:19.395Z,82.97
2023-01-19T06:40:57.933Z,82.78
2023-01-19T06:43:25.846Z,82.87
2023-01-19T06:45:53.062Z,82.80
2023-01-19T06:48:20.391Z,82.72
2023-01-19T06:50:48.468Z,82.82
2023-01-19T06:53:16.767Z,82.81
2023-01-19T06:55:44.057Z,82.73
2023-01-19T06:58:11.708Z,82.40
2023-01-19T07:00:39.042Z,82.21
2023-01-19T07:03:07.649Z,82.39
2023-01-19T07:05:35.988Z,82.18
2023-01-19T07:08:03.895Z,82.01
2023-01-19T07:11:25.005Z,81.89
2023-01-19T07:13:18.472Z,81.76
2023-01-19T07:15:45.591Z,81.69
2023-01-19T07:18:12.698Z,81.16
2023-01-19T07:20:39.947Z,80.73
2023-01-19T07:23:07.099Z,80.30
2023-01-19T07:25:34.169Z,79.60
2023-01-19T07:28:01.599Z,79.24
2023-01-19T07:30:29.074Z,78.39
2023-01-19T07:32:57.547Z,77.68
2023-01-19T07:35:25.163Z,77.52
2023-01-19T07:37:52.567Z,77.03
2023-01-19T07:40:19.730Z,76.99
2023-01-19T07:42:48.697Z,75.94
2023-01-19T07:45:17.856Z,75.66
2023-01-19T07:47:45.846Z,75.10
2023-01-19T07:50:13.314Z,74.63
2023-01-19T07:52:40.565Z,74.43
2023-01-19T07:55:08.777Z,73.29
2023-01-19T07:57:36.001Z,72.99
2023-01-19T08:00:04.659Z,71.98
2023-01-19T08:02:40.629Z,71.64
2023-01-19T08:05:08.414Z,71.77
2023-01-19T08:07:35.656Z,71.30
2023-01-19T08:10:03.026Z,70.80
2023-01-19T08:12:30.209Z,70.42
2023-01-19T08:14:57.231Z,70.47
2023-01-19T08:17:24.458Z,70.28
2023-01-19T08:19:51.688Z,69.91
2023-01-19T08:22:18.947Z,70.23
2023-01-19T08:24:46.141Z,70.28
2023-01-19T08:27:13.244Z,69.27
2023-01-19T08:29:40.352Z,69.59
2023-01-19T08:32:07.618Z,68.84
2023-01-19T08:34:34.862Z,68.48
2023-01-19T08:37:01.976Z,68.15
2023-01-19T08:39:29.059Z,69.21
2023-01-19T08:41:56.122Z,68.34
2023-01-19T08:44:23.207Z,68.97
2023-01-19T08:46:50.248Z,68.50
2023-01-19T08:49:17.461Z,67.48
2023-01-19T08:51:46.410Z,67.40
2023-01-19T08:54:13.673Z,67.66
2023-01-19T08:56:40.769Z,67.94
2023-01-19T08:59:10.349Z,66.58
2023-01-19T09:01:38.663Z,66.59
2023-01-19T09:04:05.851Z,65.99
2023-01-19T09:06:33.613Z,66.66
2023-01-19T09:09:00.701Z,66.39
2023-01-19T09:11:27.868Z,66.53
2023-01-19T09:13:54.991Z,66.39
2023-01-19T09:16:22.170Z,65.53
2023-01-19T09:18:49.288Z,65.66
2023-01-19T09:21:16.407Z,64.42
2023-01-19T09:23:44.176Z,64.70
2023-01-19T09:26:11.412Z,64.24
2023-01-19T09:28:39.185Z,63.98
2023-01-19T09:31:08.611Z,63.81
2023-01-19T09:33:35.892Z,63.53
2023-01-19T09:36:03.264Z,63.30
2023-01-19T09:38:33.528Z,62.34
2023-01-19T09:41:01.054Z,62.05
2023-01-19T09:43:42.192Z,62.11
2023-01-19T09:46:11.653Z,62.06
2023-01-19T09:48:47.826Z,60.83
2023-01-19T09:51:21.404Z,59.99
2023-01-19T09:53:50.814Z,59.20
2023-01-19T09:56:20.499Z,59.44
2023-01-19T09:58:50.590Z,58.91
2023-01-19T10:01:48.493Z,58.54
2023-01-19T10:04:31.637Z,58.44
2023-01-19T10:07:30.885Z,59.62
2023-01-19T10:10:28.388Z,59.45
2023-01-19T10:13:33.741Z,58.21
2023-01-19T10:16:51.014Z,57.97
2023-01-19T10:19:28.058Z,57.50
2023-01-19T10:21:58.325Z,58.00
2023-01-19T10:24:43.966Z,57.32
2023-01-19T10:27:22.709Z,57.21
2023-01-19T10:29:49.808Z,58.30
2023-01-19T10:32:33.750Z,58.52
2023-01-19T10:35:12.015Z,58.38
2023-01-19T10:37:44.221Z,58.85
2023-01-19T10:40:11.442Z,59.52
2023-01-19T10:42:41.166Z,59.76
2023-01-19T10:45:21.479Z,58.99
2023-01-19T10:47:49.584Z,58.82
2023-01-19T10:50:31.737Z,58.53
2023-01-19T10:53:05.165Z,57.96
2023-01-19T10:55:39.529Z,56.98
2023-01-19T10:58:26.143Z,56.55
2023-01-19T11:00:53.416Z,56.67
2023-01-19T11:03:31.583Z,55.51
2023-01-19T11:06:22.956Z,54.03
2023-01-19T11:08:51.945Z,54.22
2023-01-19T11:11:20.965Z,53.92
2023-01-19T11:14:11.527Z,53.03
2023-01-19T11:16:39.559Z,53.28
2023-01-19T11:19:20.220Z,52.20
2023-01-19T11:21:47.600Z,52.67
2023-01-19T11:24:15.895Z,51.30
2023-01-19T11:27:02.514Z,50.58
2023-01-19T11:29:31.019Z,49.20
2023-01-19T11:32:20.690Z,49.61
2023-01-19T11:34:49.235Z,49.20
2023-01-19T11:37:16.693Z,47.66
2023-01-19T11:39:53.006Z,47.49
2023-01-19T11:42:21.081Z,46.93
2023-01-19T11:44:53.615Z,47.15
2023-01-19T11:47:37.868Z,46.42
2023-01-19T11:50:24.529Z,46.12
2023-01-19T11:53:04.093Z,44.60
2023-01-19T11:55:50.872Z,45.36
2023-01-19T11:58:19.914Z,44.47
2023-01-19T12:01:07.441Z,43.47
2023-01-19T12:03:54.900Z,43.96
2023-01-19T12:06:47.251Z,43.68
2023-01-19T12:09:26.056Z,43.88
2023-01-19T12:12:03.670Z,44.31
2023-01-19T12:14:53.397Z,44.36
2023-01-19T12:17:31.581Z,43.51
2023-01-19T12:20:25.830Z,43.66
2023-01-19T12:23:10.647Z,42.39
2023-01-19T12:25:58.447Z,42.20
2023-01-19T12:28:32.177Z,41.31
2023-01-19T12:31:01.170Z,41.76
2023-01-19T12:33:32.823Z,42.89
2023-01-19T12:36:10.281Z,42.21
2023-01-19T12:38:53.779Z,42.60
2023-01-19T12:41:37.547Z,43.19
2023-01-19T12:44:10.815Z,43.31
2023-01-19T12:46:45.480Z,43.68
2023-01-19T12:49:34.836Z,43.06
2023-01-19T12:52:33.571Z,42.49
2023-01-19T12:55:13.978Z,41.55
2023-01-19T12:57:56.167Z,41.51
2023-01-19T13:00:23.283Z,41.96
2023-01-19T13:02:56.246Z,41.48
2023-01-19T13:05:32.313Z,40.92
2023-01-19T13:08:02.726Z,41.56
2023-01-19T13:11:09.060Z,41.15
2023-01-19T13:13:37.165Z,41.40
2023-01-19T13:16:19.234Z,41.08
2023-01-19T13:18:52.092Z,40.23
2023-01-19T13:21:46.718Z,40.33
2023-01-19T13:24:18.642Z,41.03
2023-01-19T13:26:48.647Z,40.88
2023-01-19T13:29:36.469Z,40.96
2023-01-19T13:32:18.088Z,41.18
2023-01-19T13:34:52.483Z,41.59
2023-01-19T13:37:23.054Z,41.92
2023-01-19T13:39:54.288Z,41.81
2023-01-19T13:42:38.016Z,41.82
2023-01-19T13:45:26.587Z,41.64
2023-01-19T13:47:56.724Z,41.58
2023-01-19T13:50:31.151Z,42.09
2023-01-19T13:52:58.829Z,42.33
2023-01-19T13:55:29.020Z,42.75
2023-01-19T13:57:57.049Z,42.28
2023-01-19T14:00:27.695Z,42.62
2023-01-19T14:03:22.924Z,43.14
2023-01-19T14:05:52.609Z,43.67
2023-01-19T14:08:21.435Z,43.90
2023-01-19T14:10:51.828Z,44.56
2023-01-19T14:13:26.545Z,44.63
2023-01-19T14:16:00.299Z,44.48
2023-01-19T14:18:35.839Z,44.81
2023-01-19T14:21:11.612Z,45.46
2023-01-19T14:23:47.742Z,46.13
2023-01-19T14:26:41.265Z,47.33
2023-01-19T14:29:33.091Z,48.80
2023-01-19T14:32:00.253Z,50.16
2023-01-19T14:34:39.363Z,50.62
2023-01-19T14:37:28.665Z,51.39
2023-01-19T14:40:10.266Z,51.95
2023-01-19T14:42:37.436Z,52.80
2023-01-19T14:45:17.176Z,53.16
2023-01-19T14:47:52.219Z,53.35
2023-01-19T14:50:27.450Z,54.19
2023-01-19T14:52:58.336Z,54.46
2023-01-19T14:55:45.834Z,55.24
2023-01-19T14:58:17.583Z,55.55
2023-01-19T15:00:45.878Z,56.12
2023-01-19T15:03:14.128Z,56.96
2023-01-19T15:05:44.663Z,57.58
2023-01-19T15:08:19.532Z,57.67
2023-01-19T15:10:46.694Z,57.97
2023-01-19T15:13:25.222Z,59.46
2023-01-19T15:15:52.870Z,59.28
2023-01-19T15:18:25.663Z,60.32
2023-01-19T15:20:54.819Z,60.56
2023-01-19T15:23:21.984Z,61.43
2023-01-19T15:25:50.018Z,61.57
2023-01-19T15:28:19.963Z,62.21
2023-01-19T15:30:47.090Z,61.92
2023-01-19T15:33:26.083Z,62.65
2023-01-19T15:35:53.494Z,62.44
2023-01-19T15:38:20.757Z,63.17
2023-01-19T15:40:51.324Z,63.66
2023-01-19T15:43:20.445Z,63.83
2023-01-19T15:46:00.113Z,63.70
2023-01-19T15:48:27.526Z,63.93
2023-01-19T15:50:54.996Z,64.43
2023-01-19T15:53:23.576Z,64.41
2023-01-19T15:55:54.917Z,64.84
2023-01-19T15:58:23.770Z,65.61
2023-01-19T16:00:56.347Z,65.48
2023-01-19T16:03:25.450Z,65.41
2023-01-19T16:05:52.519Z,66.11
2023-01-19T16:08:21.499Z,66.31
2023-01-19T16:10:48.651Z,66.07
2023-01-19T16:13:15.667Z,66.32
2023-01-19T16:15:43.039Z,66.45
2023-01-19T16:18:10.221Z,66.51
2023-01-19T16:20:37.279Z,66.39
2023-01-19T16:23:20.636Z,66.66
2023-01-19T16:25:59.431Z,66.16
2023-01-19T16:28:27.361Z,66.98
2023-01-19T16:30:54.570Z,66.32
2023-01-19T16:33:21.745Z,67.49
2023-01-19T16:35:48.823Z,67.51
2023-01-19T16:38:15.917Z,67.84
2023-01-19T16:40:44.936Z,68.11
2023-01-19T16:43:13.963Z,68.21
2023-01-19T16:46:01.395Z,68.59
2023-01-19T16:48:28.549Z,69.52
2023-01-19T16:51:05.556Z,69.93
2023-01-19T16:53:34.741Z,70.03
2023-01-19T16:56:13.571Z,70.04
2023-01-19T16:58:41.931Z,70.10
2023-01-19T17:01:15.136Z,71.67
2023-01-19T17:03:43.136Z,72.50
2023-01-19T17:06:13.527Z,72.52
2023-01-19T17:08:41.042Z,72.92
2023-01-19T17:11:12.620Z,73.26
2023-01-19T17:13:39.691Z,71.83
2023-01-19T17:16:07.399Z,72.84
2023-01-19T17:18:35.707Z,71.45
2023-01-19T17:21:06.387Z,72.43
2023-01-19T17:23:35.641Z,73.40
2023-01-19T17:26:04.303Z,74.08
2023-01-19T17:28:31.382Z,73.50
2023-01-19T17:31:09.137Z,73.87
2023-01-19T17:33:37.136Z,74.53
2023-01-19T17:36:14.274Z,73.60
2023-01-19T17:38:41.674Z,74.96
2023-01-19T17:41:17.077Z,74.32
2023-01-19T17:43:46.033Z,73.97
2023-01-19T17:46:13.398Z,73.93
2023-01-19T17:48:40.615Z,73.70
2023-01-19T17:51:12.622Z,74.14
2023-01-19T17:53:41.305Z,73.60
2023-01-19T17:56:15.383Z,73.74
2023-01-19T17:58:42.332Z,73.39
2023-01-19T18:01:22.455Z,73.88
2023-01-19T18:03:50.060Z,73.37
2023-01-19T18:06:17.136Z,73.86
2023-01-19T18:08:46.522Z,73.71
2023-01-19T18:11:17.114Z,74.70
2023-01-19T18:13:47.563Z,75.84
2023-01-19T18:16:27.072Z,75.90
2023-01-19T18:18:55.860Z,75.28
2023-01-19T18:21:26.822Z,76.21
2023-01-19T18:24:03.994Z,75.91
2023-01-19T18:26:34.121Z,75.19
2023-01-19T18:29:01.719Z,74.82
2023-01-19T18:31:28.894Z,75.00
2023-01-19T18:33:56.000Z,75.36
2023-01-19T18:36:23.162Z,75.75
2023-01-19T18:38:50.348Z,75.49
2023-01-19T18:41:20.240Z,74.76
2023-01-19T18:43:48.234Z,74.34
2023-01-19T18:46:15.945Z,74.58
2023-01-19T18:48:43.260Z,74.75
2023-01-19T18:51:13.933Z,74.54
2023-01-19T18:53:41.214Z,73.97
2023-01-19T18:56:11.630Z,74.63
2023-01-19T18:58:39.553Z,75.32
2023-01-19T19:01:32.481Z,74.70
2023-01-19T19:04:00.449Z,74.75
2023-01-19T19:06:28.146Z,74.77
2023-01-19T19:08:58.538Z,76.15
2023-01-19T19:11:26.381Z,75.27
2023-01-19T19:13:56.760Z,74.90
2023-01-19T19:16:23.929Z,74.96
2023-01-19T19:18:51.037Z,75.96
2023-01-19T19:21:21.728Z,75.07
2023-01-19T19:23:57.116Z,75.15
2023-01-19T19:26:25.627Z,75.45
2023-01-19T19:28:52.930Z,75.21
2023-01-19T19:31:22.461Z,75.31
2023-01-19T19:33:50.350Z,74.88
2023-01-19T19:36:19.305Z,74.69
2023-01-19T19:38:47.509Z,74.94
2023-01-19T19:41:19.275Z,74.86
2023-01-19T19:43:46.397Z,75.08
2023-01-19T19:46:16.029Z,74.70
2023-01-19T19:48:43.231Z,74.52
2023-01-19T19:51:18.517Z,74.55
2023-01-19T19:53:46.654Z,74.19
2023-01-19T19:56:14.920Z,74.16
2023-01-19T19:58:42.698Z,74.17
2023-01-19T20:01:19.280Z,74.23
2023-01-19T20:03:46.710Z,73.96
2023-01-19T20:06:20.218Z,73.58
2023-01-19T20:08:49.377Z,72.89
2023-01-19T20:11:20.490Z,72.52
2023-01-19T20:13:47.646Z,72.56
2023-01-19T20:16:20.108Z,72.80
2023-01-19T20:18:53.521Z,72.68
2023-01-19T20:21:30.362Z,72.38
2023-01-19T20:24:02.276Z,72.01
2023-01-19T20:26:33.049Z,72.18
2023-01-19T20:29:06.166Z,72.14
2023-01-19T20:31:42.771Z,72.15
2023-01-19T20:34:13.292Z,72.25
2023-01-19T20:36:41.180Z,72.29
2023-01-19T20:39:10.475Z,72.18
2023-01-19T20:41:43.060Z,71.72
2023-01-19T20:44:22.464Z,71.40
2023-01-19T20:46:50.517Z,70.79
2023-01-19T20:49:17.907Z,69.92
2023-01-19T20:51:46.330Z,69.21
2023-01-19T20:54:18.084Z,66.98
2023-01-19T20:56:45.113Z,65.27
2023-01-19T20:59:12.988Z,63.95
2023-01-19T21:01:41.332Z,63.32
2023-01-19T21:04:09.546Z,62.91
2023-01-19T21:06:37.541Z,63.35
2023-01-19T21:09:04.719Z,63.99
2023-01-19T21:11:33.338Z,64.28
2023-01-19T21:14:00.343Z,64.57
2023-01-19T21:16:32.340Z,65.00
2023-01-19T21:18:59.944Z,65.86
2023-01-19T21:21:31.721Z,66.47
2023-01-19T21:24:01.346Z,66.96
2023-01-19T21:26:32.721Z,67.10
2023-01-19T21:29:01.722Z,67.37
2023-01-19T21:31:29.292Z,67.76
2023-01-19T21:33:57.530Z,67.54
2023-01-19T21:36:25.088Z,67.41
2023-01-19T21:38:52.581Z,67.45
2023-01-19T21:41:19.993Z,67.94
2023-01-19T21:43:47.235Z,68.33
2023-01-19T21:46:28.710Z,68.58
2023-01-19T21:49:01.854Z,68.70
2023-01-19T21:51:32.883Z,68.65
2023-01-19T21:54:01.250Z,68.71
2023-01-19T21:56:30.094Z,68.46
2023-01-19T21:59:01.539Z,68.59
2023-01-19T22:01:29.412Z,69.33
2023-01-19T22:03:57.387Z,69.18
2023-01-19T22:06:26.428Z,69.78
2023-01-19T22:08:54.005Z,70.27
2023-01-19T22:11:21.546Z,70.09
2023-01-19T22:13:48.856Z,70.54
2023-01-19T22:16:19.084Z,71.13
2023-01-19T22:18:57.004Z,71.27
2023-01-19T22:21:27.118Z,71.53
2023-01-19T22:23:58.542Z,71.31
2023-01-19T22:26:27.633Z,71.55
2023-01-19T22:28:57.010Z,72.62
2023-01-19T22:31:26.121Z,72.51
2023-01-19T22:33:54.168Z,72.83
2023-01-19T22:36:33.216Z,73.06
2023-01-19T22:39:05.322Z,72.95
2023-01-19T22:41:35.137Z,72.63
2023-01-19T22:44:07.582Z,71.60
2023-01-19T22:46:36.470Z,72.05
2023-01-19T22:49:06.899Z,73.04
2023-01-19T22:51:34.610Z,73.99
2023-01-19T22:54:02.343Z,73.28
2023-01-19T22:56:32.121Z,73.43
2023-01-19T22:59:00.174Z,73.31
2023-01-19T23:01:28.452Z,73.52
2023-01-19T23:03:56.021Z,73.03
2023-01-19T23:06:29.557Z,73.81
2023-01-19T23:08:59.790Z,73.09
2023-01-19T23:11:34.285Z,73.21
2023-01-19T23:14:06.343Z,73.54
2023-01-19T23:16:34.484Z,73.42
2023-01-19T23:19:02.628Z,73.89
2023-01-19T23:21:31.763Z,73.17
2023-01-19T23:24:02.504Z,73.72
2023-01-19T23:26:30.929Z,73.12
2023-01-19T23:29:01.483Z,73.52
2023-01-19T23:31:34.709Z,73.54
2023-01-19T23:34:06.512Z,73.39
2023-01-19T23:36:36.096Z,73.11
2023-01-19T23:39:13.097Z,73.14
2023-01-19T23:41:40.208Z,73.06
2023-01-19T23:44:07.600Z,73.30
2023-01-19T23:46:34.731Z,73.06
2023-01-19T23:49:01.906Z,73.60
2023-01-19T23:51:31.246Z,73.43
2023-01-19T23:53:59.266Z,73.52
2023-01-19T23:56:33.554Z,73.84
2023-01-19T23:59:07.135Z,73.90
